Time;durP1;ratioP1;P1;durP2;ratioP2;P2;SDS_P1;SDS_P2;PMS_P1;PMS_P2;Temp;Humidity;BMP_temperature;BMP_pressure;BME280_temperature;BME280_humidity;BME280_pressure;Samples;Min_cycle;Max_cycle;Signal;HPM_P1;HPM_P2
2022/03/07 00:01:16;;;;;;;3.55;2.83;;;;;;;19.23;40.29;100756.31;4986494;28;20146;-46
2022/03/07 00:03:42;;;;;;;7.40;3.35;;;;;;;19.22;40.52;100746.75;4986318;28;20417;-46
2022/03/07 00:06:08;;;;;;;4.65;2.72;;;;;;;19.22;40.51;100757.31;4985886;28;20300;-49
2022/03/07 00:08:33;;;;;;;10.10;3.72;;;;;;;19.20;40.28;100754.06;4978372;28;20035;-47
2022/03/07 00:10:59;;;;;;;3.33;2.95;;;;;;;19.20;40.36;100754.06;4982249;28;20558;-48
2022/03/07 00:13:24;;;;;;;6.05;2.58;;;;;;;19.19;40.47;100756.88;4983893;28;20078;-50
2022/03/07 00:15:50;;;;;;;6.50;2.55;;;;;;;19.18;40.20;100757.91;4980974;28;20035;-47
2022/03/07 00:18:15;;;;;;;5.28;2.88;;;;;;;19.16;40.20;100747.53;4985194;28;20030;-46
2022/03/07 00:20:41;;;;;;;4.70;3.38;;;;;;;19.16;40.13;100758.09;4978787;28;20131;-47
2022/03/07 00:23:07;;;;;;;4.20;2.67;;;;;;;19.17;39.89;100761.56;4985057;28;20057;-47
2022/03/07 00:25:32;;;;;;;3.72;2.72;;;;;;;19.16;40.17;100759.91;4986084;28;20398;-50
2022/03/07 00:27:58;;;;;;;4.50;3.03;;;;;;;19.15;40.20;100759.09;4985383;28;20443;-46
2022/03/07 00:30:23;;;;;;;3.25;2.58;;;;;;;19.14;40.11;100762.75;4978080;28;20034;-46
2022/03/07 00:32:49;;;;;;;3.85;2.67;;;;;;;19.15;40.15;100761.75;4985762;28;20038;-49
2022/03/07 00:35:15;;;;;;;3.65;2.55;;;;;;;19.15;40.05;100755.66;4986079;28;20031;-47
2022/03/07 00:37:42;;;;;;;4.22;2.88;;;;;;;19.15;39.97;100761.75;4982053;28;20038;-49
2022/03/07 00:40:09;;;;;;;4.30;2.50;;;;;;;19.15;39.91;100758.28;4985782;28;20080;-47
2022/03/07 00:42:37;;;;;;;3.40;2.60;;;;;;;19.16;39.84;100757.28;4985661;28;20030;-46
2022/03/07 00:45:06;;;;;;;6.00;2.95;;;;;;;19.15;40.00;100763.56;4985436;28;20128;-47
2022/03/07 00:47:31;;;;;;;5.07;2.95;;;;;;;19.14;39.85;100760.09;4985298;28;20061;-48
2022/03/07 00:49:57;;;;;;;3.05;2.33;;;;;;;19.14;39.75;100765.38;4980935;28;20560;-45
2022/03/07 00:52:22;;;;;;;3.42;2.70;;;;;;;19.14;39.87;100764.56;4985345;28;20446;-48
2022/03/07 00:54:47;;;;;;;2.67;2.40;;;;;;;19.13;39.53;100762.94;4982779;28;20115;-51
2022/03/07 00:57:13;;;;;;;5.50;2.33;;;;;;;19.11;39.51;100749.94;4986033;28;20072;-46
2022/03/07 00:59:38;;;;;;;2.55;1.83;;;;;;;19.11;39.69;100759.69;4985772;28;20038;-47
2022/03/07 01:02:04;;;;;;;4.47;2.45;;;;;;;19.10;39.62;100758.03;4985885;28;20034;-47
2022/03/07 01:04:29;;;;;;;3.58;2.38;;;;;;;19.09;39.74;100741.38;4985305;28;21241;-46
2022/03/07 01:06:55;;;;;;;4.75;2.55;;;;;;;19.07;39.63;100732.84;4985787;28;20121;-46
2022/03/07 01:09:20;;;;;;;3.80;1.90;;;;;;;19.06;39.61;100733.84;4984951;28;20337;-47
2022/03/07 01:11:46;;;;;;;3.70;2.13;;;;;;;19.07;39.71;100742.59;4985886;28;20034;-47
2022/03/07 01:14:12;;;;;;;4.00;2.92;;;;;;;19.04;39.71;100738.50;4985636;28;20068;-46
2022/03/07 01:16:37;;;;;;;3.72;2.90;;;;;;;19.03;39.58;100739.50;4984145;28;20185;-49
2022/03/07 01:19:03;;;;;;;2.85;2.50;;;;;;;19.02;39.51;100750.25;4985211;28;20390;-46
2022/03/07 01:21:28;;;;;;;2.53;2.10;;;;;;;19.03;39.59;100736.06;4986317;28;20069;-49
2022/03/07 01:23:53;;;;;;;2.85;2.28;;;;;;;19.02;39.78;100739.69;4985133;28;20452;-47
2022/03/07 01:26:19;;;;;;;3.50;2.58;;;;;;;19.01;39.43;100738.88;4985177;28;20385;-45
2022/03/07 01:28:44;;;;;;;3.20;2.30;;;;;;;19.00;39.60;100734.59;4985259;28;20034;-49
2022/03/07 01:31:10;;;;;;;3.90;2.20;;;;;;;19.00;39.42;100733.78;4983238;28;20092;-47
2022/03/07 01:33:35;;;;;;;4.53;2.83;;;;;;;18.99;39.40;100740.09;4987490;28;20034;-47
2022/03/07 01:36:01;;;;;;;3.45;2.42;;;;;;;18.99;39.31;100729.53;4988735;28;20038;-47
2022/03/07 01:38:26;;;;;;;2.95;2.10;;;;;;;18.98;39.42;100730.53;4990219;28;20517;-48
2022/03/07 01:40:52;;;;;;;3.22;2.92;;;;;;;18.98;39.43;100725.25;4985904;28;20394;-46
2022/03/07 01:43:17;;;;;;;3.92;2.58;;;;;;;18.97;39.33;100732.34;4990117;28;20247;-46
2022/03/07 01:45:43;;;;;;;3.50;2.40;;;;;;;18.97;39.50;100719.16;4988369;28;20419;-46
2022/03/07 01:48:10;;;;;;;3.33;2.20;;;;;;;18.97;39.60;100726.25;4989932;28;20324;-47
2022/03/07 01:50:36;;;;;;;3.53;2.42;;;;;;;18.96;39.54;100722.00;4988963;28;20026;-48
2022/03/07 01:53:01;;;;;;;2.88;2.58;;;;;;;18.96;39.57;100722.00;4984442;28;20030;-46
2022/03/07 01:55:27;;;;;;;3.30;2.40;;;;;;;18.95;39.44;100720.34;4989449;28;20038;-46
2022/03/07 01:57:53;;;;;;;3.05;2.63;;;;;;;18.95;39.21;100723.00;4988198;28;20048;-46
2022/03/07 02:00:21;;;;;;;2.33;1.75;;;;;;;18.94;39.38;100727.47;4987295;28;20038;-47
2022/03/07 02:02:47;;;;;;;2.92;2.35;;;;;;;18.93;39.34;100730.28;4988839;28;20038;-46
2022/03/07 02:05:12;;;;;;;3.22;2.50;;;;;;;18.92;39.44;100729.47;4988976;28;20320;-46
2022/03/07 02:07:39;;;;;;;3.05;2.17;;;;;;;18.93;39.36;100719.72;4987781;28;20104;-45
2022/03/07 02:12:30;;;;;;;3.35;2.60;;;;;;;18.90;39.42;100723.59;5290052;22;20062;-50
2022/03/07 02:14:56;;;;;;;2.67;1.90;;;;;;;18.89;39.25;100725.41;5008496;28;20033;-47
2022/03/07 02:17:22;;;;;;;3.22;1.77;;;;;;;18.89;39.46;100721.97;5009439;28;20033;-50
2022/03/07 02:19:47;;;;;;;1.83;1.30;;;;;;;18.88;39.43;100713.22;5009485;28;20514;-47
2022/03/07 02:22:15;;;;;;;2.35;1.98;;;;;;;18.87;39.46;100719.53;5009637;28;20048;-48
2022/03/07 02:24:41;;;;;;;3.35;1.98;;;;;;;18.87;39.46;100716.88;5009402;28;20077;-48
2022/03/07 02:27:09;;;;;;;3.42;2.33;;;;;;;18.87;39.53;100719.53;5008913;28;20034;-47
2022/03/07 02:29:36;;;;;;;2.13;1.70;;;;;;;18.87;39.49;100721.34;5010154;28;20029;-49
2022/03/07 02:32:03;;;;;;;2.22;1.95;;;;;;;18.86;39.40;100720.53;5007531;28;20026;-48
2022/03/07 02:34:29;;;;;;;2.88;2.33;;;;;;;18.86;39.27;100722.34;5009058;28;20038;-49
2022/03/07 02:36:54;;;;;;;2.50;2.25;;;;;;;18.85;39.26;100713.63;5008883;28;20033;-47
2022/03/07 02:39:20;;;;;;;4.03;2.35;;;;;;;18.85;39.26;100718.91;5010036;28;20034;-47
2022/03/07 02:41:47;;;;;;;2.42;1.95;;;;;;;18.86;39.13;100714.44;5009667;28;20109;-46
2022/03/07 02:44:12;;;;;;;3.30;2.15;;;;;;;18.85;39.35;100713.63;5008639;28;20033;-49
2022/03/07 02:46:38;;;;;;;3.15;2.08;;;;;;;18.86;39.33;100717.06;5008823;28;20144;-47
2022/03/07 02:49:05;;;;;;;2.35;1.73;;;;;;;18.86;39.34;100720.53;5008996;28;20033;-49
2022/03/07 02:51:31;;;;;;;2.60;2.00;;;;;;;18.85;39.17;100713.63;5007539;28;20041;-47
2022/03/07 02:53:56;;;;;;;2.67;1.88;;;;;;;18.84;39.13;100711.97;5008939;28;20042;-47
2022/03/07 02:56:22;;;;;;;2.45;2.03;;;;;;;18.83;39.21;100707.72;5008890;28;20388;-46
2022/03/07 02:58:48;;;;;;;2.13;1.92;;;;;;;18.83;39.27;100705.06;5007480;28;20029;-46
2022/03/07 03:01:13;;;;;;;3.05;2.15;;;;;;;18.82;39.32;100708.72;5008276;28;20462;-49
2022/03/07 03:03:39;;;;;;;3.90;2.00;;;;;;;18.83;39.42;100718.28;5008869;28;20072;-48
2022/03/07 03:06:04;;;;;;;2.60;2.05;;;;;;;18.82;39.29;100719.28;5008781;28;20442;-50
2022/03/07 03:08:30;;;;;;;2.90;2.33;;;;;;;18.80;39.19;100716.00;5008253;28;20045;-53
2022/03/07 03:10:57;;;;;;;2.47;2.13;;;;;;;18.79;39.22;100719.66;5009225;28;20471;-46
2022/03/07 03:13:23;;;;;;;2.22;1.83;;;;;;;18.80;39.30;100721.28;5007819;28;20125;-46
2022/03/07 03:15:50;;;;;;;3.40;2.15;;;;;;;18.80;39.44;100715.19;5007030;28;20033;-48
2022/03/07 03:18:17;;;;;;;2.72;1.98;;;;;;;18.78;39.39;100723.31;5008734;28;20030;-46
2022/03/07 03:20:45;;;;;;;2.70;2.08;;;;;;;18.77;39.30;100716.41;5008872;28;20538;-49
2022/03/07 03:23:11;;;;;;;3.88;2.03;;;;;;;18.78;39.37;100722.50;5008124;28;20048;-48
2022/03/07 03:25:36;;;;;;;2.65;1.58;;;;;;;18.76;39.32;100717.41;5008312;28;20039;-46
2022/03/07 03:28:02;;;;;;;2.15;1.90;;;;;;;18.77;39.44;100720.84;5007825;28;20556;-48
2022/03/07 03:30:28;;;;;;;2.00;1.70;;;;;;;18.75;39.34;100722.88;5007594;28;20029;-47
2022/03/07 03:32:54;;;;;;;2.03;1.73;;;;;;;18.75;39.41;100728.97;5008973;28;20515;-48
2022/03/07 03:35:19;;;;;;;2.28;1.65;;;;;;;18.73;39.43;100723.06;5008411;28;20157;-46
2022/03/07 03:37:45;;;;;;;2.15;1.80;;;;;;;18.73;39.40;100723.06;5005487;28;20583;-47
2022/03/07 03:40:12;;;;;;;2.15;1.55;;;;;;;18.72;39.43;100729.34;4999538;28;20034;-50
2022/03/07 03:42:38;;;;;;;2.85;1.67;;;;;;;18.70;39.40;100726.09;4997214;28;20053;-47
2022/03/07 03:45:06;;;;;;;3.35;1.63;;;;;;;18.71;39.51;100732.19;4998625;28;20060;-47
2022/03/07 03:47:32;;;;;;;2.88;2.00;;;;;;;18.69;39.60;100735.00;4995978;22;20513;-49
2022/03/07 03:49:58;;;;;;;2.53;1.90;;;;;;;18.68;39.52;100733.38;4992231;28;20026;-49
2022/03/07 03:52:24;;;;;;;2.47;1.70;;;;;;;18.67;39.43;100731.75;4987788;28;20038;-48
2022/03/07 03:54:49;;;;;;;2.05;1.67;;;;;;;18.67;39.27;100730.91;4985556;28;20137;-48
2022/03/07 03:57:15;;;;;;;2.00;1.48;;;;;;;18.66;39.49;100735.38;4984745;28;20030;-48
2022/03/07 03:59:40;;;;;;;2.50;1.83;;;;;;;18.66;39.36;100743.31;4990398;28;20026;-48
2022/03/07 04:02:06;;;;;;;2.65;1.77;;;;;;;18.65;39.43;100741.66;4988059;28;20038;-51
2022/03/07 04:04:32;;;;;;;2.60;1.60;;;;;;;18.65;39.38;100744.31;4991341;28;20096;-47
2022/03/07 04:06:58;;;;;;;1.88;1.42;;;;;;;18.65;39.36;100741.66;4987829;28;20469;-47
2022/03/07 04:09:23;;;;;;;1.95;1.55;;;;;;;18.64;39.35;100737.41;4993012;28;20112;-47
2022/03/07 04:11:49;;;;;;;6.05;1.90;;;;;;;18.64;39.45;100741.84;4985841;28;20030;-48
2022/03/07 04:14:16;;;;;;;2.38;1.60;;;;;;;18.64;39.37;100736.56;4995425;28;20060;-49
2022/03/07 04:16:42;;;;;;;2.38;1.85;;;;;;;18.62;39.28;100739.41;4989909;28;20512;-49
2022/03/07 04:19:09;;;;;;;1.98;1.67;;;;;;;18.61;39.43;100732.50;4987786;28;20211;-46
2022/03/07 04:21:36;;;;;;;2.28;1.42;;;;;;;18.62;39.48;100734.13;4990712;28;20022;-50
2022/03/07 04:24:02;;;;;;;3.47;1.92;;;;;;;18.61;39.47;100740.41;4987815;28;20041;-48
2022/03/07 04:26:29;;;;;;;2.20;1.60;;;;;;;18.62;39.42;100752.59;4990371;28;20014;-47
2022/03/07 04:28:55;;;;;;;2.20;1.58;;;;;;;18.62;39.28;100746.50;4985867;28;20642;-50
2022/03/07 04:31:22;;;;;;;2.20;1.67;;;;;;;18.62;39.13;100747.31;4990640;28;20109;-47
2022/03/07 04:33:47;;;;;;;2.67;1.90;;;;;;;18.62;39.13;100752.59;4986199;28;20022;-51
2022/03/07 04:36:19;;;;;;;3.13;1.73;;;;;;;18.61;39.13;100743.06;4992943;28;20034;-45
2022/03/07 04:38:46;;;;;;;2.88;1.92;;;;;;;18.62;39.12;100744.69;4984711;28;20045;-50
2022/03/07 04:41:11;;;;;;;2.42;1.83;;;;;;;18.61;39.30;100742.22;4986780;28;20493;-49
2022/03/07 04:43:37;;;;;;;2.28;1.83;;;;;;;18.60;39.17;100746.69;4989333;28;20026;-48
2022/03/07 04:46:04;;;;;;;2.42;1.92;;;;;;;18.61;39.16;100736.97;4990701;28;20057;-49
2022/03/07 04:48:30;;;;;;;3.03;1.85;;;;;;;18.60;39.16;100744.06;4985111;28;20409;-46
2022/03/07 04:50:56;;;;;;;2.83;1.60;;;;;;;18.60;39.23;100746.69;4991745;28;20415;-48
2022/03/07 04:53:22;;;;;;;2.35;1.80;;;;;;;18.59;39.26;100745.03;4986810;28;20480;-48
2022/03/07 04:55:47;;;;;;;3.08;2.00;;;;;;;18.57;39.29;100747.84;4984358;28;20018;-48
2022/03/07 04:58:13;;;;;;;1.90;1.70;;;;;;;18.56;39.21;100750.69;4983456;28;20133;-47
2022/03/07 05:00:38;;;;;;;2.20;1.77;;;;;;;18.54;39.15;100753.50;4986879;28;20026;-47
2022/03/07 05:03:04;;;;;;;3.35;1.30;;;;;;;18.54;39.20;100755.34;4986116;28;20103;-47
2022/03/07 05:05:29;;;;;;;4.18;2.15;;;;;;;18.53;39.28;100758.97;4986763;28;20056;-47
2022/03/07 05:07:55;;;;;;;2.63;1.85;;;;;;;18.53;39.31;100761.63;4985822;28;20171;-47
2022/03/07 05:10:20;;;;;;;1.92;1.67;;;;;;;18.54;39.25;100764.06;4987714;28;20488;-48
2022/03/07 05:12:49;;;;;;;2.65;1.42;;;;;;;18.53;39.29;100762.44;4990884;28;20435;-46
2022/03/07 05:15:15;;;;;;;2.58;1.48;;;;;;;18.55;39.08;100760.44;4986329;28;20034;-50
2022/03/07 05:17:45;;;;;;;2.13;1.50;;;;;;;18.61;39.39;100772.06;4991443;28;20038;-51
2022/03/07 05:20:12;;;;;;;5.32;1.92;;;;;;;18.67;39.61;100771.31;4986812;28;20475;-52
2022/03/07 05:22:38;;;;;;;3.90;2.38;;;;;;;18.75;40.65;100776.47;4992410;28;20124;-50
2022/03/07 05:25:05;;;;;;;4.32;2.45;;;;;;;18.83;41.05;100772.88;4982120;28;20034;-48
2022/03/07 05:27:30;;;;;;;7.35;2.33;;;;;;;18.88;40.83;100773.94;4991604;28;20026;-51
2022/03/07 05:29:56;;;;;;;3.38;1.63;;;;;;;18.90;40.60;100781.69;4986612;28;20478;-46
2022/03/07 05:32:21;;;;;;;4.78;1.45;;;;;;;18.93;40.81;100775.16;4986480;28;20030;-49
2022/03/07 05:34:46;;;;;;;3.53;1.70;;;;;;;18.96;40.94;100772.97;4988371;28;20390;-49
2022/03/07 05:37:12;;;;;;;10.45;1.90;;;;;;;19.01;41.41;100778.50;4986726;28;20026;-48
2022/03/07 05:39:37;;;;;;;5.65;1.95;;;;;;;19.04;41.49;100780.75;4986495;28;20469;-45
2022/03/07 05:42:04;;;;;;;7.82;1.75;;;;;;;19.08;41.46;100786.47;4999152;28;20405;-46
2022/03/07 05:44:29;;;;;;;9.23;1.75;;;;;;;19.11;41.16;100780.81;4985080;28;20130;-47
2022/03/07 05:46:54;;;;;;;2.78;1.48;;;;;;;19.16;40.78;100786.31;4986496;28;20057;-46
2022/03/07 05:49:20;;;;;;;2.28;1.45;;;;;;;19.18;40.69;100787.75;4986525;28;20026;-48
2022/03/07 05:51:46;;;;;;;3.22;1.50;;;;;;;19.23;40.46;100788.00;4987019;28;20031;-47
2022/03/07 05:54:11;;;;;;;3.88;1.73;;;;;;;19.27;40.13;100795.53;4992540;28;20029;-47
2022/03/07 05:56:37;;;;;;;5.88;1.45;;;;;;;19.27;39.90;100795.53;4984787;28;20109;-48
2022/03/07 05:59:02;;;;;;;7.85;1.45;;;;;;;19.30;39.99;100795.16;4983429;28;20034;-47
2022/03/07 06:01:28;;;;;;;5.05;1.77;;;;;;;19.37;40.29;100801.31;4982558;28;20042;-46
2022/03/07 06:03:53;;;;;;;6.78;1.65;;;;;;;19.40;40.34;100785.84;4986526;28;20132;-47
2022/03/07 06:06:19;;;;;;;6.97;1.95;;;;;;;19.45;40.12;100795.84;4988034;28;20279;-46
2022/03/07 06:08:44;;;;;;;2.42;1.48;;;;;;;19.48;40.12;100788.34;4988928;28;20474;-45
2022/03/07 06:11:10;;;;;;;3.47;1.50;;;;;;;19.54;39.85;100792.06;4985376;28;20030;-46
2022/03/07 06:13:35;;;;;;;3.38;1.65;;;;;;;19.57;39.88;100786.41;4984604;28;20026;-46
2022/03/07 06:16:00;;;;;;;2.78;1.48;;;;;;;19.61;39.55;100795.56;4986818;28;20381;-46
2022/03/07 06:18:26;;;;;;;3.35;1.40;;;;;;;19.66;39.56;100805.56;4983166;28;20073;-49
2022/03/07 06:20:51;;;;;;;3.47;1.90;;;;;;;19.71;39.21;100797.88;4988503;28;20386;-44
2022/03/07 06:23:17;;;;;;;2.50;1.30;;;;;;;19.73;39.02;100796.66;4988702;28;20057;-46
2022/03/07 06:25:42;;;;;;;4.38;1.80;;;;;;;19.78;39.01;100793.44;4987786;28;20030;-45
2022/03/07 06:28:09;;;;;;;2.95;1.10;;;;;;;19.84;38.82;100793.47;4989542;28;20744;-51
2022/03/07 06:30:34;;;;;;;2.65;1.60;;;;;;;19.92;38.79;100788.97;4988980;28;20065;-50
2022/03/07 06:33:00;;;;;;;5.80;1.67;;;;;;;19.97;38.57;100787.38;4989722;28;20493;-48
2022/03/07 06:35:25;;;;;;;3.00;1.60;;;;;;;20.02;38.50;100790.25;4988063;28;20030;-46
2022/03/07 06:37:52;;;;;;;2.95;2.35;;;;;;;20.08;38.27;100794.75;4990573;28;20489;-45
2022/03/07 06:40:19;;;;;;;4.43;1.45;;;;;;;20.13;38.09;100802.09;4989918;28;20077;-46
2022/03/07 06:42:46;;;;;;;2.90;1.20;;;;;;;20.18;38.11;100803.13;4990998;28;20113;-46
2022/03/07 06:45:12;;;;;;;4.95;2.05;;;;;;;20.20;37.82;100803.75;4988326;28;20030;-46
2022/03/07 06:47:42;;;;;;;3.35;1.95;;;;;;;20.23;37.76;100804.38;4985375;28;20497;-47
2022/03/07 06:50:08;;;;;;;3.00;1.80;;;;;;;20.28;37.75;100807.22;4993044;28;20034;-46
2022/03/07 06:52:34;;;;;;;4.47;1.38;;;;;;;20.31;37.72;100805.00;4980973;28;20543;-46
2022/03/07 06:55:00;;;;;;;4.03;1.65;;;;;;;20.31;37.62;100802.34;4988270;28;20121;-46
2022/03/07 06:57:25;;;;;;;5.68;2.13;;;;;;;20.32;37.50;100805.81;4986825;28;20809;-45
2022/03/07 06:59:51;;;;;;;1.92;1.63;;;;;;;20.32;37.53;100805.81;4989701;28;20018;-49
2022/03/07 07:02:17;;;;;;;1.92;1.67;;;;;;;20.32;37.43;100805.81;4985636;28;20437;-48
2022/03/07 07:04:42;;;;;;;3.08;1.58;;;;;;;20.33;37.38;100810.06;4992511;28;20093;-45
2022/03/07 07:07:08;;;;;;;2.15;1.50;;;;;;;20.31;37.56;100812.13;4988089;28;20066;-45
2022/03/07 07:09:33;;;;;;;2.67;1.52;;;;;;;20.31;37.64;100809.47;4991550;28;20461;-45
2022/03/07 07:11:59;;;;;;;1.65;1.15;;;;;;;20.30;37.51;100807.84;4987350;28;20404;-45
2022/03/07 07:14:25;;;;;;;1.83;1.45;;;;;;;20.28;37.41;100809.88;4987311;28;20034;-47
2022/03/07 07:16:50;;;;;;;2.75;1.40;;;;;;;20.27;37.67;100800.31;4989479;28;20034;-47
2022/03/07 07:19:16;;;;;;;2.42;1.42;;;;;;;20.25;37.58;100804.97;4990066;28;20017;-47
2022/03/07 07:21:41;;;;;;;2.53;1.38;;;;;;;20.25;37.44;100797.03;4990887;28;20030;-45
2022/03/07 07:24:08;;;;;;;2.67;1.35;;;;;;;20.23;37.44;100802.53;4993403;28;20022;-46
2022/03/07 07:26:33;;;;;;;2.10;1.42;;;;;;;20.23;37.37;100807.81;4985997;28;20027;-44
2022/03/07 07:28:59;;;;;;;2.38;1.67;;;;;;;20.21;37.22;100809.84;4986885;28;20034;-50
2022/03/07 07:31:24;;;;;;;2.03;1.67;;;;;;;20.21;37.16;100812.50;4988044;28;20026;-48
2022/03/07 07:33:50;;;;;;;2.75;1.88;;;;;;;20.22;36.99;100800.91;4987662;28;20034;-46
2022/03/07 07:36:15;;;;;;;2.58;1.63;;;;;;;20.20;37.00;100803.75;4988550;28;20036;-45
2022/03/07 07:38:41;;;;;;;2.10;1.60;;;;;;;20.21;37.09;100807.22;4988131;28;20193;-47
2022/03/07 07:41:07;;;;;;;2.55;1.63;;;;;;;20.21;36.88;100807.22;4986107;28;20328;-47
2022/03/07 07:43:33;;;;;;;2.17;1.77;;;;;;;20.20;36.89;100809.03;4986000;28;20109;-48
2022/03/07 07:45:58;;;;;;;2.22;2.03;;;;;;;20.19;36.67;100809.25;4986526;28;20058;-48
2022/03/07 07:48:23;;;;;;;1.63;1.25;;;;;;;20.17;36.74;100820.03;4989564;28;20308;-47
2022/03/07 07:50:49;;;;;;;2.97;1.67;;;;;;;20.16;37.03;100818.38;4985753;28;20037;-49
2022/03/07 07:53:14;;;;;;;3.83;1.70;;;;;;;20.20;36.97;100813.50;4987518;28;20105;-45
2022/03/07 07:55:40;;;;;;;5.50;1.67;;;;;;;20.25;37.14;100816.38;4986851;28;20030;-45
2022/03/07 07:58:05;;;;;;;3.03;2.35;;;;;;;20.26;37.30;100827.78;4988360;28;20030;-47
2022/03/07 08:00:31;;;;;;;3.70;2.17;;;;;;;20.23;37.62;100825.53;4988220;28;20536;-46
2022/03/07 08:02:56;;;;;;;3.50;1.92;;;;;;;20.19;37.73;100831.22;4986219;28;20057;-48
2022/03/07 08:05:22;;;;;;;4.97;2.10;;;;;;;20.17;37.77;100829.78;4984487;28;20034;-45
2022/03/07 08:07:47;;;;;;;2.60;1.95;;;;;;;20.15;37.74;100837.09;4988185;28;20113;-45
2022/03/07 08:10:15;;;;;;;5.07;2.13;;;;;;;20.12;37.77;100838.31;4985910;28;20064;-48
2022/03/07 08:12:41;;;;;;;2.65;1.90;;;;;;;20.11;37.82;100835.88;4983545;28;20137;-44
2022/03/07 08:15:14;;;;;;;4.63;2.00;;;;;;;20.08;37.79;100837.06;4983944;28;20111;-44
2022/03/07 08:17:46;;;;;;;3.22;1.92;;;;;;;20.05;37.78;100842.75;4986154;28;20516;-45
2022/03/07 08:20:13;;;;;;;3.95;1.80;;;;;;;20.05;37.63;100852.50;4982770;28;20516;-44
2022/03/07 08:22:38;;;;;;;2.60;1.92;;;;;;;20.03;37.40;100838.66;4985870;28;20480;-48
2022/03/07 08:25:04;;;;;;;4.97;2.10;;;;;;;20.02;37.20;100840.50;4990998;28;20034;-44
2022/03/07 08:27:30;;;;;;;7.65;2.72;;;;;;;20.01;36.68;100851.28;4981895;28;20122;-44
2022/03/07 08:29:56;;;;;;;3.50;2.45;;;;;;;19.97;36.22;100852.69;4984529;28;20113;-48
2022/03/07 08:32:22;;;;;;;5.90;2.88;;;;;;;19.95;35.93;100842.28;4986748;28;20061;-45
2022/03/07 08:34:48;;;;;;;3.28;2.38;;;;;;;19.95;35.77;100842.28;4987202;28;20061;-45
2022/03/07 08:37:13;;;;;;;4.97;2.65;;;;;;;19.95;35.80;100841.47;4984545;28;20065;-42
2022/03/07 08:39:39;;;;;;;2.70;2.28;;;;;;;19.94;35.63;100840.66;4986739;28;20023;-42
2022/03/07 08:42:05;;;;;;;4.78;2.25;;;;;;;19.93;35.69;100841.69;4987984;28;20026;-44
2022/03/07 08:44:30;;;;;;;7.65;2.65;;;;;;;19.93;35.66;100839.03;4987463;28;20026;-42
2022/03/07 08:46:56;;;;;;;5.47;2.53;;;;;;;19.94;35.39;100843.31;4986498;28;20502;-44
2022/03/07 08:49:21;;;;;;;3.83;2.38;;;;;;;19.95;35.68;100833.53;4985421;28;20023;-43
2022/03/07 08:51:46;;;;;;;5.55;2.55;;;;;;;19.93;35.50;100844.31;4987137;28;20054;-42
2022/03/07 08:54:14;;;;;;;5.00;2.60;;;;;;;19.92;35.47;100834.75;4986525;28;20038;-42
2022/03/07 08:56:39;;;;;;;4.30;2.33;;;;;;;19.91;35.44;100827.00;4985543;28;20030;-42
2022/03/07 08:59:05;;;;;;;3.33;2.00;;;;;;;19.86;35.51;100823.13;4985075;28;20032;-42
2022/03/07 09:01:30;;;;;;;2.97;2.42;;;;;;;19.86;35.86;100819.66;4983490;28;20042;-54
2022/03/07 09:03:57;;;;;;;6.10;4.03;;;;;;;19.85;36.12;100825.97;4987800;28;20026;-50
2022/03/07 09:06:22;;;;;;;5.40;3.60;;;;;;;19.83;36.36;100822.75;4987112;28;20050;-54
2022/03/07 09:08:48;;;;;;;10.38;3.80;;;;;;;19.80;36.47;100817.84;4985411;28;20023;-52
2022/03/07 09:11:13;;;;;;;8.77;3.90;;;;;;;19.80;36.60;100828.41;4990907;28;20070;-46
2022/03/07 09:13:38;;;;;;;8.95;3.85;;;;;;;19.78;36.27;100819.88;4981330;28;20069;-47
2022/03/07 09:16:04;;;;;;;7.78;3.67;;;;;;;19.78;35.68;100819.88;4987446;28;20041;-44
2022/03/07 09:18:29;;;;;;;9.13;3.88;;;;;;;19.76;35.44;100820.06;4987807;28;20034;-44
2022/03/07 09:20:57;;;;;;;10.35;4.35;;;;;;;19.75;35.20;100817.59;4985401;28;20534;-45
2022/03/07 09:23:23;;;;;;;11.98;4.65;;;;;;;19.74;35.04;100818.63;4986589;28;20034;-45
2022/03/07 09:25:48;;;;;;;12.75;5.07;;;;;;;19.72;34.99;100818.81;4989358;28;20081;-44
2022/03/07 09:28:14;;;;;;;5.93;4.18;;;;;;;19.71;34.99;100813.72;4986818;28;20042;-43
2022/03/07 09:30:39;;;;;;;7.60;4.38;;;;;;;19.70;35.02;100820.84;4990213;28;20085;-45
2022/03/07 09:33:05;;;;;;;6.85;4.20;;;;;;;19.68;34.83;100820.22;4984263;28;20053;-45
2022/03/07 09:35:31;;;;;;;7.75;3.83;;;;;;;19.68;35.08;100816.75;4989932;28;20439;-43
2022/03/07 09:37:57;;;;;;;5.45;3.78;;;;;;;19.66;35.11;100819.59;4984410;28;20026;-43
2022/03/07 09:40:22;;;;;;;8.70;4.25;;;;;;;19.63;34.99;100813.88;4981658;28;20052;-44
2022/03/07 09:42:48;;;;;;;5.72;3.97;;;;;;;19.61;35.05;100807.97;4988149;28;20491;-46
2022/03/07 09:45:14;;;;;;;6.15;4.53;;;;;;;19.61;34.95;100813.25;4990862;28;20609;-46
2022/03/07 09:47:41;;;;;;;7.70;4.18;;;;;;;19.60;34.89;100806.34;4983766;28;20105;-44
2022/03/07 09:50:09;;;;;;;6.03;4.22;;;;;;;19.57;34.85;100806.72;4985894;28;20492;-42
2022/03/07 09:52:35;;;;;;;7.07;4.25;;;;;;;19.55;34.86;100807.72;4986598;28;20416;-43
2022/03/07 09:55:00;;;;;;;6.15;4.00;;;;;;;19.54;34.98;100814.03;4988753;28;20046;-46
2022/03/07 09:57:25;;;;;;;7.13;3.80;;;;;;;19.52;34.78;100816.06;4989826;28;20417;-43
2022/03/07 09:59:51;;;;;;;5.00;3.72;;;;;;;19.50;34.94;100815.41;4989674;28;20030;-43
2022/03/07 10:02:22;;;;;;;5.88;3.72;;;;;;;19.51;34.96;100819.69;4989820;28;20030;-43
2022/03/07 10:04:48;;;;;;;7.55;4.15;;;;;;;19.50;34.92;100815.41;4990503;28;20030;-45
2022/03/07 10:07:14;;;;;;;5.60;4.43;;;;;;;19.50;35.00;100815.41;4989681;28;20532;-43
2022/03/07 10:09:40;;;;;;;4.97;4.07;;;;;;;19.49;34.93;100811.13;4980273;28;20142;-42
2022/03/07 10:12:06;;;;;;;5.53;4.10;;;;;;;19.49;35.00;100807.66;4983424;28;20037;-42
2022/03/07 10:14:47;;;;;;;7.20;4.22;;;;;;;19.46;35.17;100806.22;4985424;28;20018;-43
2022/03/07 10:17:16;;;;;;;5.47;4.15;;;;;;;19.44;35.27;100815.34;4988408;28;20037;-42
2022/03/07 10:19:45;;;;;;;8.48;4.25;;;;;;;19.42;35.44;100812.91;4985910;28;20173;-42
2022/03/07 10:22:14;;;;;;;4.43;3.78;;;;;;;19.43;35.61;100814.53;4990707;28;20380;-43
2022/03/07 10:24:40;;;;;;;6.25;4.07;;;;;;;19.41;35.58;100813.91;4996284;28;20049;-47
2022/03/07 10:27:06;;;;;;;4.25;3.83;;;;;;;19.40;35.67;100814.91;4993601;28;20038;-47
2022/03/07 10:29:31;;;;;;;5.68;4.25;;;;;;;19.39;35.73;100815.94;4989913;28;20022;-45
2022/03/07 10:31:57;;;;;;;5.20;3.75;;;;;;;19.37;35.67;100814.53;4989548;28;20339;-44
2022/03/07 10:34:25;;;;;;;4.57;4.10;;;;;;;19.37;35.50;100810.06;4982249;28;20031;-41
2022/03/07 10:36:50;;;;;;;6.78;4.50;;;;;;;19.34;35.40;100805.16;4989529;28;20034;-48
2022/03/07 10:39:24;;;;;;;6.25;4.60;;;;;;;19.33;35.14;100800.88;4988903;28;20086;-41
2022/03/07 10:41:50;;;;;;;5.95;4.95;;;;;;;19.33;35.12;100800.88;4982940;28;20026;-46
2022/03/07 10:44:28;;;;;;;5.65;5.15;;;;;;;19.31;34.99;100791.50;4988763;28;20089;-47
2022/03/07 10:47:09;;;;;;;6.28;5.60;;;;;;;19.29;35.00;100789.06;4989341;28;20054;-43
2022/03/07 10:49:34;;;;;;;7.38;5.72;;;;;;;19.31;35.07;100787.03;4988789;28;20030;-44
2022/03/07 10:52:04;;;;;;;6.95;6.25;;;;;;;19.31;34.95;100783.59;4989702;28;20041;-48
2022/03/07 10:54:36;;;;;;;8.00;5.95;;;;;;;19.29;34.69;100783.78;4989213;28;20444;-45
2022/03/07 10:57:02;;;;;;;7.55;6.75;;;;;;;19.29;34.66;100788.25;4989435;28;20031;-47
2022/03/07 10:59:30;;;;;;;9.40;6.25;;;;;;;19.26;34.59;100778.88;4988659;28;20546;-44
2022/03/07 11:02:17;;;;;;;7.80;7.00;;;;;;;19.22;34.38;100775.00;4982418;28;20033;-46
2022/03/07 11:04:50;;;;;;;9.38;6.38;;;;;;;19.22;34.60;100764.44;4988821;28;20468;-46
2022/03/07 11:07:17;;;;;;;8.98;7.00;;;;;;;19.22;34.66;100761.78;4989176;28;20105;-44
2022/03/07 11:09:43;;;;;;;6.82;6.10;;;;;;;19.21;34.69;100760.16;4988268;28;20030;-48
2022/03/07 11:12:13;;;;;;;7.30;6.60;;;;;;;19.20;34.71;100755.88;4987020;28;20062;-43
2022/03/07 11:14:42;;;;;;;8.77;7.88;;;;;;;19.19;34.83;100746.31;4988330;28;20069;-44
2022/03/07 11:17:17;;;;;;;9.30;7.50;;;;;;;19.19;35.00;100751.59;4987324;28;20030;-43
2022/03/07 11:19:53;;;;;;;9.43;7.72;;;;;;;19.18;35.00;100750.78;4988484;28;20481;-46
2022/03/07 11:22:20;;;;;;;7.95;6.90;;;;;;;19.17;35.12;100743.06;4987556;28;20070;-45